^^
Datos históricos de la estación: Murcia-Puente Tocinos
Diario Informe para Enero 9, 2019 Unidades:  Métrico    Inglés   Ambas
Diario Semanal Mensual Anual Configurable
  Máximo: Mínimo: Media:
Temperatura: 19.1 °C 6.9 °C 13 °C
Punto de rocio: 5.6 °C -2.3 °C 1.2 °C
Humedad: 78% 27% 47%
Velocidad viento: 19.8km/h 2.9km/h 9.1km/h
Racha viento: 33.3km/h - -
Viento- - SW
Presión: 1021.6 hPa 1012.7 hPa -
Precipitación: 0.0 mm    
Historical Graphs
 
 
Tabla de datos para Enero 9, 2019
Hora Temperatura Punto de rocio Presión Viento Velocidad viento Racha viento Humedad Intensidad lluvia(por hora) Nubes
00:00 9.2 °C 5.6 °C 1021.6 hPa SSW 9.7 km/h 19.3 km/h 78% 0.0 mm CLR
00:05 9.3 °C 5.4 °C 1021.3 hPa SSW 9.7 km/h 19.3 km/h 77% 0.0 mm CLR
00:10 9.3 °C 5.4 °C 1021.3 hPa SSW 11.1 km/h 14.8 km/h 77% 0.0 mm CLR
00:15 9.2 °C 5.4 °C 1021.3 hPa SSW 11.3 km/h 17.7 km/h 77% 0.0 mm CLR
00:20 9.2 °C 5.2 °C 1021.1 hPa SSW 9.7 km/h 20.9 km/h 76% 0.0 mm CLR
00:25 9.2 °C 5.2 °C 1021.1 hPa SSW 9.5 km/h 18.5 km/h 76% 0.0 mm CLR
00:30 9.0 °C 5.0 °C 1021.1 hPa SSW 11.9 km/h 14.8 km/h 76% 0.0 mm CLR
00:35 8.9 °C 4.9 °C 1020.9 hPa South 11.9 km/h 14.8 km/h 76% 0.0 mm CLR
00:40 8.8 °C 4.8 °C 1020.9 hPa SSW 10.3 km/h 13.0 km/h 76% 0.0 mm CLR
00:45 8.8 °C 4.8 °C 1020.9 hPa SW 10.3 km/h 16.7 km/h 76% 0.0 mm CLR
00:50 8.8 °C 4.8 °C 1020.7 hPa South 10.3 km/h 14.8 km/h 76% 0.0 mm CLR
00:55 8.7 °C 4.7 °C 1020.7 hPa SSW 10.3 km/h 14.8 km/h 76% 0.0 mm CLR
01:00 8.7 °C 4.5 °C 1020.7 hPa SSW 11.3 km/h 16.1 km/h 75% 0.0 mm CLR
01:05 8.8 °C 4.4 °C 1020.6 hPa South 10.3 km/h 13.0 km/h 74% 0.0 mm CLR
01:10 8.7 °C 4.1 °C 1020.6 hPa SSW 10.0 km/h 13.7 km/h 73% 0.0 mm CLR
01:15 8.5 °C 3.9 °C 1020.6 hPa South 10.0 km/h 16.7 km/h 73% 0.0 mm CLR
01:20 8.4 °C 4.1 °C 1020.4 hPa SW 10.3 km/h 14.8 km/h 74% 0.0 mm CLR
01:25 8.3 °C 3.9 °C 1020.4 hPa South 10.3 km/h 13.0 km/h 74% 0.0 mm CLR
01:30 8.2 °C 3.8 °C 1020.4 hPa WSW 9.5 km/h 7.4 km/h 74% 0.0 mm CLR
01:35 8.3 °C 3.7 °C 1020.3 hPa SSW 9.5 km/h 11.1 km/h 73% 0.0 mm CLR
01:40 8.4 °C 3.7 °C 1020.3 hPa SSW 8.0 km/h 16.1 km/h 72% 0.0 mm CLR
01:45 8.4 °C 3.4 °C 1020.3 hPa SSW 7.6 km/h 14.0 km/h 71% 0.0 mm CLR
01:50 8.4 °C 3.2 °C 1020.2 hPa SW 8.7 km/h 9.3 km/h 70% 0.0 mm CLR
01:55 8.5 °C 3.1 °C 1020.2 hPa SW 9.7 km/h 16.1 km/h 69% 0.0 mm CLR
02:00 8.6 °C 3.0 °C 1020.2 hPa SW 9.7 km/h 14.5 km/h 68% 0.0 mm CLR
02:05 8.5 °C 2.9 °C 1020.2 hPa SSW 9.5 km/h 13.0 km/h 68% 0.0 mm CLR
02:10 8.5 °C 2.9 °C 1020.2 hPa SSW 9.7 km/h 19.3 km/h 68% 0.0 mm CLR
02:15 8.4 °C 2.6 °C 1020.2 hPa South 10.0 km/h 14.8 km/h 67% 0.0 mm CLR
02:20 8.3 °C 2.7 °C 1019.9 hPa South 11.3 km/h 20.9 km/h 68% 0.0 mm CLR
02:25 8.1 °C 2.8 °C 1019.9 hPa South 11.1 km/h 14.0 km/h 69% 0.0 mm CLR
02:30 8.1 °C 2.6 °C 1019.9 hPa SSW 10.3 km/h 14.8 km/h 68% 0.0 mm CLR
02:35 8.0 °C 2.7 °C 1019.8 hPa South 11.3 km/h 14.5 km/h 69% 0.0 mm CLR
02:40 7.9 °C 2.6 °C 1019.8 hPa South 11.3 km/h 19.3 km/h 69% 0.0 mm CLR
02:45 7.9 °C 2.3 °C 1019.8 hPa SSW 11.3 km/h 19.3 km/h 68% 0.0 mm CLR
02:50 8.2 °C 2.0 °C 1019.7 hPa SW 10.0 km/h 16.7 km/h 65% 0.0 mm CLR
02:55 8.4 °C 1.8 °C 1019.7 hPa SSW 10.0 km/h 11.9 km/h 63% 0.0 mm CLR
03:00 8.4 °C 1.6 °C 1019.7 hPa SW 11.3 km/h 11.3 km/h 62% 0.0 mm CLR
03:05 8.4 °C 1.8 °C 1019.7 hPa WSW 10.3 km/h 3.7 km/h 63% 0.0 mm CLR
03:10 8.3 °C 1.9 °C 1019.7 hPa WSW 2.9 km/h 3.7 km/h 64% 0.0 mm CLR
03:15 8.1 °C 1.9 °C 1019.7 hPa SW 3.2 km/h 8.0 km/h 65% 0.0 mm CLR
03:20 7.6 °C 1.8 °C 1019.9 hPa SE 2.9 km/h 9.3 km/h 67% 0.0 mm CLR
03:25 7.3 °C 1.8 °C 1019.9 hPa SSE 2.9 km/h 7.4 km/h 68% 0.0 mm CLR
03:30 7.3 °C 1.6 °C 1019.9 hPa SSE 4.8 km/h 9.7 km/h 67% 0.0 mm CLR
03:35 7.4 °C 1.4 °C 1020.0 hPa SSW 5.0 km/h 9.3 km/h 66% 0.0 mm CLR
03:40 7.5 °C 1.3 °C 1020.0 hPa SSW 5.8 km/h 5.6 km/h 65% 0.0 mm CLR
03:45 7.7 °C 1.1 °C 1020.0 hPa SSW 5.8 km/h 9.3 km/h 63% 0.0 mm CLR
03:50 7.9 °C 1.1 °C 1019.9 hPa SSW 4.8 km/h 11.3 km/h 62% 0.0 mm CLR
03:55 8.2 °C 0.9 °C 1019.9 hPa SSW 5.8 km/h 13.0 km/h 60% 0.0 mm CLR
04:00 8.2 °C 0.9 °C 1019.9 hPa South 9.7 km/h 12.9 km/h 60% 0.0 mm CLR
04:05 7.9 °C 0.8 °C 1019.7 hPa South 9.5 km/h 13.7 km/h 61% 0.0 mm CLR
04:10 7.6 °C 1.0 °C 1019.7 hPa South 8.7 km/h 13.0 km/h 63% 0.0 mm CLR
04:15 7.3 °C 1.2 °C 1019.7 hPa South 8.7 km/h 14.8 km/h 65% 0.0 mm CLR
04:20 7.1 °C 1.2 °C 1019.6 hPa South 10.3 km/h 13.0 km/h 66% 0.0 mm CLR
04:25 6.9 °C 1.0 °C 1019.6 hPa SSW 10.3 km/h 14.8 km/h 66% 0.0 mm CLR
04:30 7.2 °C 0.6 °C 1019.6 hPa SW 10.0 km/h 16.7 km/h 63% 0.0 mm CLR
04:35 8.6 °C -0.2 °C 1019.3 hPa SW 10.0 km/h 18.5 km/h 54% 0.0 mm CLR
04:40 10.0 °C -0.8 °C 1019.3 hPa SW 11.9 km/h 18.5 km/h 47% 0.0 mm CLR
04:45 10.8 °C -1.0 °C 1019.3 hPa West 11.9 km/h 16.7 km/h 44% 0.0 mm CLR
04:50 11.3 °C -1.2 °C 1019.0 hPa SW 12.2 km/h 16.7 km/h 42% 0.0 mm CLR
04:55 11.2 °C -1.3 °C 1019.0 hPa SSW 12.2 km/h 14.0 km/h 42% 0.0 mm CLR
05:00 11.0 °C -1.1 °C 1019.0 hPa SSW 11.3 km/h 16.1 km/h 43% 0.0 mm CLR
05:05 10.5 °C -0.9 °C 1018.8 hPa SSW 11.1 km/h 14.8 km/h 45% 0.0 mm CLR
05:10 10.2 °C -0.9 °C 1018.8 hPa SW 10.3 km/h 24.1 km/h 46% 0.0 mm CLR
05:15 10.5 °C -0.9 °C 1018.8 hPa SW 10.3 km/h 22.2 km/h 45% 0.0 mm CLR
05:20 10.7 °C -0.8 °C 1018.4 hPa WSW 13.7 km/h 20.4 km/h 45% 0.0 mm CLR
05:25 10.7 °C -0.8 °C 1018.4 hPa WSW 13.7 km/h 13.0 km/h 45% 0.0 mm CLR
05:30 10.4 °C -0.7 °C 1018.4 hPa WSW 11.1 km/h 14.8 km/h 46% 0.0 mm CLR
05:35 10.2 °C -0.6 °C 1018.2 hPa West 11.1 km/h 18.5 km/h 47% 0.0 mm CLR
05:40 10.2 °C -0.6 °C 1018.2 hPa WSW 11.3 km/h 19.3 km/h 47% 0.0 mm CLR
05:45 10.1 °C -0.4 °C 1018.2 hPa West 10.3 km/h 11.1 km/h 48% 0.0 mm CLR
05:50 10.2 °C -0.3 °C 1018.3 hPa West 8.0 km/h 14.5 km/h 48% 0.0 mm CLR
05:55 10.3 °C -0.6 °C 1018.3 hPa WSW 7.6 km/h 9.3 km/h 47% 0.0 mm CLR
06:00 10.3 °C -0.2 °C 1018.3 hPa WSW 8.0 km/h 11.3 km/h 48% 0.0 mm CLR
06:05 10.3 °C -0.2 °C 1018.3 hPa WSW 8.0 km/h 9.7 km/h 48% 0.0 mm CLR
06:10 10.4 °C -0.2 °C 1018.3 hPa WSW 5.8 km/h 9.5 km/h 48% 0.0 mm CLR
06:15 10.5 °C -0.3 °C 1018.3 hPa SW 5.8 km/h 8.7 km/h 47% 0.0 mm CLR
06:20 10.3 °C -0.5 °C 1018.3 hPa SSW 4.8 km/h 11.3 km/h 47% 0.0 mm CLR
06:25 10.1 °C -0.4 °C 1018.3 hPa SW 5.0 km/h 11.1 km/h 48% 0.0 mm CLR
06:30 10.0 °C -0.3 °C 1018.3 hPa SW 8.0 km/h 8.0 km/h 49% 0.0 mm CLR
06:35 10.1 °C -0.2 °C 1018.3 hPa SSW 6.4 km/h 3.7 km/h 49% 0.0 mm CLR
06:40 10.2 °C -0.1 °C 1018.3 hPa SW 4.8 km/h 9.7 km/h 49% 0.0 mm CLR
06:45 10.2 °C -0.1 °C 1018.3 hPa East 5.0 km/h 5.6 km/h 49% 0.0 mm CLR
06:50 10.0 °C -0.2 °C 1018.3 hPa SE 4.7 km/h 3.7 km/h 49% 0.0 mm CLR
06:55 9.7 °C -0.2 °C 1018.3 hPa SE 3.2 km/h 11.3 km/h 50% 0.0 mm CLR
07:00 9.8 °C -0.2 °C 1018.3 hPa South 4.8 km/h 9.7 km/h 50% 0.0 mm CLR
07:05 9.9 °C -0.1 °C 1018.4 hPa South 5.8 km/h 7.4 km/h 50% 0.0 mm CLR
07:10 9.9 °C -0.1 °C 1018.4 hPa SSW 4.8 km/h 16.1 km/h 50% 0.0 mm CLR
07:15 10.2 °C 0.2 °C 1018.4 hPa West 5.8 km/h 13.0 km/h 50% 0.0 mm CLR
07:20 10.4 °C 0.1 °C 1018.5 hPa WSW 8.0 km/h 12.9 km/h 49% 0.0 mm CLR
07:25 10.5 °C 0.2 °C 1018.5 hPa SW 7.6 km/h 11.1 km/h 49% 0.0 mm CLR
07:30 10.7 °C 0.4 °C 1018.5 hPa WSW 8.0 km/h 20.9 km/h 49% 0.0 mm CLR
07:35 10.8 °C 0.5 °C 1018.6 hPa West 7.6 km/h 7.4 km/h 49% 0.0 mm CLR
07:40 10.8 °C 0.5 °C 1018.6 hPa SW 6.9 km/h 9.3 km/h 49% 0.0 mm CLR
07:45 10.8 °C 0.5 °C 1018.6 hPa WSW 6.9 km/h 14.8 km/h 49% 0.0 mm CLR
07:50 10.8 °C 0.5 °C 1018.7 hPa WSW 8.0 km/h 14.5 km/h 49% 0.0 mm CLR
07:55 10.8 °C 0.5 °C 1018.7 hPa West 8.4 km/h 3.7 km/h 49% 0.0 mm CLR
08:00 10.7 °C 0.7 °C 1018.7 hPa WSW 3.2 km/h 8.0 km/h 50% 0.0 mm CLR
08:05 10.7 °C 0.7 °C 1019.1 hPa SSW 3.2 km/h 5.6 km/h 50% 0.0 mm CLR
08:10 10.6 °C 0.6 °C 1019.1 hPa SSW 3.9 km/h 5.6 km/h 50% 0.0 mm CLR
08:15 10.5 °C 0.5 °C 1019.1 hPa SSW 3.9 km/h 7.4 km/h 50% 0.0 mm CLR
08:20 10.6 °C 0.6 °C 1019.1 hPa SW 3.2 km/h 9.3 km/h 50% 0.0 mm CLR
08:25 10.8 °C 0.5 °C 1019.1 hPa NW 3.2 km/h 14.8 km/h 49% 0.0 mm CLR
08:30 10.9 °C 0.6 °C 1019.1 hPa West 6.9 km/h 5.6 km/h 49% 0.0 mm CLR
08:35 10.8 °C 0.5 °C 1019.1 hPa SW 6.9 km/h 7.4 km/h 49% 0.0 mm CLR
08:40 10.8 °C 0.8 °C 1019.1 hPa SW 4.8 km/h 11.3 km/h 50% 0.0 mm CLR
08:45 10.6 °C 0.6 °C 1019.1 hPa SSW 5.0 km/h 7.4 km/h 50% 0.0 mm CLR
08:50 10.7 °C 0.7 °C 1019.2 hPa SW 5.8 km/h 9.3 km/h 50% 0.0 mm CLR
08:55 10.7 °C 0.7 °C 1019.2 hPa SW 5.8 km/h 7.4 km/h 50% 0.0 mm CLR
09:00 10.7 °C 0.9 °C 1019.2 hPa SW 4.8 km/h 9.7 km/h 51% 0.0 mm CLR
09:05 10.7 °C 0.9 °C 1019.3 hPa SSW 5.0 km/h 11.1 km/h 51% 0.0 mm CLR
09:10 10.8 °C 1.1 °C 1019.3 hPa South 6.9 km/h 7.4 km/h 51% 0.0 mm CLR
09:15 10.9 °C 1.4 °C 1019.3 hPa WSW 6.9 km/h 11.1 km/h 52% 0.0 mm CLR
09:20 11.1 °C 1.6 °C 1019.5 hPa WSW 6.4 km/h 9.3 km/h 52% 0.0 mm CLR
09:25 11.3 °C 1.5 °C 1019.5 hPa South 6.4 km/h 14.8 km/h 51% 0.0 mm CLR
09:30 11.4 °C 1.3 °C 1019.5 hPa South 9.7 km/h 16.1 km/h 50% 0.0 mm CLR
09:35 11.5 °C 1.4 °C 1019.6 hPa South 8.7 km/h 9.3 km/h 50% 0.0 mm CLR
09:40 11.4 °C 1.6 °C 1019.6 hPa South 8.4 km/h 9.3 km/h 51% 0.0 mm CLR
09:45 11.3 °C 1.8 °C 1019.6 hPa South 8.4 km/h 14.8 km/h 52% 0.0 mm CLR
09:50 11.2 °C 1.7 °C 1019.6 hPa SSW 8.0 km/h 17.7 km/h 52% 0.0 mm CLR
09:55 11.2 °C 1.9 °C 1019.6 hPa SSW 6.9 km/h 14.8 km/h 53% 0.0 mm CLR
10:00 11.2 °C 1.9 °C 1019.6 hPa SSW 11.3 km/h 14.5 km/h 53% 0.0 mm CLR
10:05 11.4 °C 2.2 °C 1019.6 hPa South 10.3 km/h 14.8 km/h 53% 0.0 mm CLR
10:10 11.7 °C 2.2 °C 1019.6 hPa SSE 10.0 km/h 16.7 km/h 52% 0.0 mm CLR
10:15 11.7 °C 2.2 °C 1019.6 hPa South 10.0 km/h 13.0 km/h 52% 0.0 mm CLR
10:20 11.9 °C 2.3 °C 1019.6 hPa South 9.7 km/h 14.5 km/h 52% 0.0 mm CLR
10:25 12.1 °C 2.6 °C 1019.6 hPa South 10.0 km/h 13.0 km/h 52% 0.0 mm CLR
10:30 12.2 °C 2.3 °C 1019.6 hPa SW 10.3 km/h 13.7 km/h 51% 0.0 mm CLR
10:35 12.4 °C 2.6 °C 1019.5 hPa WSW 10.3 km/h 11.1 km/h 51% 0.0 mm CLR
10:40 12.6 °C 2.7 °C 1019.5 hPa SSW 8.4 km/h 11.1 km/h 51% 0.0 mm CLR
10:45 12.7 °C 2.8 °C 1019.5 hPa SW 8.4 km/h 11.1 km/h 51% 0.0 mm CLR
10:50 12.9 °C 2.7 °C 1019.4 hPa SSW 8.0 km/h 16.1 km/h 50% 0.0 mm CLR
10:55 12.9 °C 2.7 °C 1019.4 hPa SSW 6.9 km/h 13.0 km/h 50% 0.0 mm CLR
11:00 13.0 °C 2.8 °C 1019.4 hPa SSW 9.7 km/h 14.5 km/h 50% 0.0 mm CLR
11:05 13.2 °C 2.7 °C 1019.6 hPa WSW 9.5 km/h 11.1 km/h 49% 0.0 mm CLR
11:10 13.3 °C 2.5 °C 1019.6 hPa WSW 7.6 km/h 14.8 km/h 48% 0.0 mm CLR
11:15 13.6 °C 2.2 °C 1019.6 hPa WNW 7.6 km/h 16.7 km/h 46% 0.0 mm CLR
11:20 13.8 °C 2.3 °C 1019.4 hPa West 11.3 km/h 19.3 km/h 46% 0.0 mm CLR
11:25 13.8 °C 2.1 °C 1019.4 hPa WSW 10.3 km/h 20.4 km/h 45% 0.0 mm CLR
11:30 13.8 °C 2.1 °C 1019.4 hPa WSW 12.9 km/h 22.5 km/h 45% 0.0 mm CLR
11:35 13.9 °C 2.2 °C 1019.3 hPa WSW 12.2 km/h 20.4 km/h 45% 0.0 mm CLR
11:40 13.9 °C 2.2 °C 1019.3 hPa SW 12.2 km/h 16.7 km/h 45% 0.0 mm CLR
11:45 14.0 °C 1.9 °C 1019.3 hPa SW 12.9 km/h 22.5 km/h 44% 0.0 mm CLR
11:50 14.1 °C 1.7 °C 1018.8 hPa WSW 10.3 km/h 22.2 km/h 43% 0.0 mm CLR
11:55 14.2 °C 2.1 °C 1018.8 hPa WSW 11.3 km/h 20.9 km/h 44% 0.0 mm CLR
12:00 14.2 °C 2.2 °C 1018.8 hPa WSW 11.3 km/h 19.3 km/h 44% 0.0 mm CLR
12:05 14.3 °C 1.6 °C 1018.5 hPa WSW 11.9 km/h 18.5 km/h 42% 0.0 mm CLR
12:10 14.3 °C 1.6 °C 1018.5 hPa West 13.0 km/h 24.1 km/h 42% 0.0 mm CLR
12:15 14.4 °C 1.6 °C 1018.5 hPa NW 13.0 km/h 20.4 km/h 42% 0.0 mm CLR
12:20 14.6 °C 1.5 °C 1018.0 hPa WSW 14.0 km/h 25.9 km/h 41% 0.0 mm CLR
12:25 14.6 °C 1.1 °C 1018.0 hPa West 14.0 km/h 27.8 km/h 40% 0.0 mm CLR
12:30 14.7 °C 1.2 °C 1018.0 hPa WNW 17.2 km/h 24.1 km/h 40% 0.0 mm CLR
12:35 14.8 °C 1.3 °C 1017.8 hPa WSW 17.2 km/h 18.5 km/h 40% 0.0 mm CLR
12:40 14.9 °C 1.4 °C 1017.8 hPa West 14.5 km/h 19.3 km/h 40% 0.0 mm CLR
12:45 15.0 °C 1.5 °C 1017.8 hPa West 15.6 km/h 16.7 km/h 40% 0.0 mm CLR
12:50 15.1 °C 1.2 °C 1017.2 hPa West 10.3 km/h 20.4 km/h 39% 0.0 mm CLR
12:55 15.2 °C 1.3 °C 1017.2 hPa WNW 10.3 km/h 16.7 km/h 39% 0.0 mm CLR
13:00 15.3 °C 1.1 °C 1017.2 hPa West 11.3 km/h 19.3 km/h 38% 0.0 mm CLR
13:05 15.5 °C 0.8 °C 1016.9 hPa WNW 11.1 km/h 22.2 km/h 37% 0.0 mm CLR
13:10 15.5 °C 0.5 °C 1016.9 hPa West 11.1 km/h 27.8 km/h 36% 0.0 mm CLR
13:15 15.6 °C 0.6 °C 1016.9 hPa WSW 11.1 km/h 16.7 km/h 36% 0.0 mm CLR
13:20 15.8 °C 1.1 °C 1016.4 hPa West 14.5 km/h 19.3 km/h 37% 0.0 mm CLR
13:25 15.9 °C 0.8 °C 1016.4 hPa West 14.0 km/h 20.4 km/h 36% 0.0 mm CLR
13:30 16.0 °C 0.6 °C 1016.4 hPa West 11.1 km/h 13.0 km/h 35% 0.0 mm CLR
13:35 16.1 °C 1.4 °C 1016.1 hPa SSW 11.1 km/h 16.7 km/h 37% 0.0 mm CLR
13:40 16.2 °C 1.5 °C 1016.1 hPa SW 10.3 km/h 11.1 km/h 37% 0.0 mm CLR
13:45 16.3 °C 1.2 °C 1016.1 hPa West 10.3 km/h 13.7 km/h 36% 0.0 mm CLR
13:50 16.3 °C 1.6 °C 1015.7 hPa SW 8.4 km/h 16.7 km/h 37% 0.0 mm CLR
13:55 16.3 °C 1.6 °C 1015.7 hPa SW 8.4 km/h 13.0 km/h 37% 0.0 mm CLR
14:00 16.4 °C 1.3 °C 1015.7 hPa SW 9.7 km/h 17.7 km/h 36% 0.0 mm CLR
14:05 16.4 °C 0.9 °C 1015.4 hPa WSW 8.7 km/h 16.7 km/h 35% 0.0 mm CLR
14:10 16.4 °C 0.9 °C 1015.4 hPa West 10.0 km/h 14.8 km/h 35% 0.0 mm CLR
14:15 16.6 °C 0.7 °C 1015.4 hPa SW 10.0 km/h 8.4 km/h 34% 0.0 mm CLR
14:20 16.7 °C 0.7 °C 1015.1 hPa WSW 8.7 km/h 11.1 km/h 34% 0.0 mm CLR
14:25 16.7 °C 0.3 °C 1015.1 hPa West 8.7 km/h 14.8 km/h 33% 0.0 mm CLR
14:30 16.8 °C 0.4 °C 1015.1 hPa North 8.4 km/h 11.1 km/h 33% 0.0 mm CLR
14:35 17.1 °C 0.7 °C 1014.6 hPa West 8.4 km/h 16.7 km/h 33% 0.0 mm CLR
14:40 17.3 °C 0.4 °C 1014.6 hPa West 8.0 km/h 12.9 km/h 32% 0.0 mm CLR
14:45 17.3 °C 0.0 °C 1014.6 hPa WNW 7.6 km/h 14.8 km/h 31% 0.0 mm CLR
14:50 17.4 °C 0.1 °C 1014.3 hPa WNW 11.3 km/h 19.3 km/h 31% 0.0 mm CLR
14:55 17.6 °C 0.3 °C 1014.3 hPa WNW 11.1 km/h 11.1 km/h 31% 0.0 mm CLR
15:00 17.7 °C -0.1 °C 1014.3 hPa West 9.7 km/h 19.3 km/h 30% 0.0 mm CLR
15:05 17.9 °C 0.1 °C 1014.1 hPa WNW 9.5 km/h 13.0 km/h 30% 0.0 mm CLR
15:10 18.1 °C 0.2 °C 1014.1 hPa WNW 9.5 km/h 11.1 km/h 30% 0.0 mm CLR
15:15 18.3 °C -0.1 °C 1014.1 hPa WSW 9.5 km/h 11.1 km/h 29% 0.0 mm CLR
15:20 18.4 °C 0.0 °C 1013.8 hPa West 6.9 km/h 16.7 km/h 29% 0.0 mm CLR
15:25 18.4 °C 0.0 °C 1013.8 hPa WSW 6.9 km/h 13.0 km/h 29% 0.0 mm CLR
15:30 18.6 °C -0.3 °C 1013.8 hPa WSW 9.7 km/h 16.1 km/h 28% 0.0 mm CLR
15:35 18.7 °C -0.2 °C 1013.7 hPa WSW 8.7 km/h 18.5 km/h 28% 0.0 mm CLR
15:40 18.7 °C -0.2 °C 1013.7 hPa SW 10.3 km/h 20.4 km/h 28% 0.0 mm CLR
15:45 18.8 °C -0.1 °C 1013.7 hPa West 10.3 km/h 24.1 km/h 28% 0.0 mm CLR
15:50 18.8 °C -0.1 °C 1013.4 hPa WSW 10.3 km/h 18.5 km/h 28% 0.0 mm CLR
15:55 18.8 °C -0.1 °C 1013.4 hPa WSW 10.3 km/h 18.5 km/h 28% 0.0 mm CLR
16:00 18.9 °C 0.0 °C 1013.4 hPa West 11.3 km/h 20.9 km/h 28% 0.0 mm CLR
16:05 18.9 °C -0.5 °C 1013.4 hPa WSW 11.9 km/h 16.7 km/h 27% 0.0 mm CLR
16:10 18.9 °C -0.5 °C 1013.4 hPa WSW 10.3 km/h 20.4 km/h 27% 0.0 mm CLR
16:15 18.9 °C -0.5 °C 1013.4 hPa WSW 10.3 km/h 14.8 km/h 27% 0.0 mm CLR
16:20 18.9 °C -0.5 °C 1013.1 hPa WSW 11.3 km/h 20.9 km/h 27% 0.0 mm CLR
16:25 19.0 °C 0.1 °C 1013.1 hPa WSW 11.1 km/h 14.8 km/h 28% 0.0 mm CLR
16:30 19.0 °C -0.4 °C 1013.1 hPa SW 9.5 km/h 16.7 km/h 27% 0.0 mm CLR
16:35 19.0 °C -0.4 °C 1013.0 hPa WSW 9.5 km/h 18.5 km/h 27% 0.0 mm CLR
16:40 19.0 °C 0.1 °C 1013.0 hPa SSW 12.2 km/h 11.1 km/h 28% 0.0 mm CLR
16:45 19.1 °C 0.2 °C 1013.0 hPa SSW 12.2 km/h 13.0 km/h 28% 0.0 mm CLR
16:50 19.0 °C 0.1 °C 1012.9 hPa SSW 9.5 km/h 13.0 km/h 28% 0.0 mm CLR
16:55 18.8 °C 0.4 °C 1012.9 hPa SSW 9.5 km/h 9.5 km/h 29% 0.0 mm CLR
17:00 18.8 °C 0.3 °C 1012.9 hPa SSW 9.7 km/h 14.5 km/h 29% 0.0 mm CLR
17:05 18.8 °C 0.4 °C 1012.9 hPa WSW 9.5 km/h 14.8 km/h 29% 0.0 mm CLR
17:10 18.8 °C -0.1 °C 1012.9 hPa WSW 9.7 km/h 12.9 km/h 28% 0.0 mm CLR
17:15 18.9 °C 0.4 °C 1012.9 hPa SW 9.7 km/h 12.9 km/h 29% 0.0 mm CLR
17:20 18.8 °C 0.4 °C 1012.9 hPa SW 7.6 km/h 9.3 km/h 29% 0.0 mm CLR
17:25 18.7 °C 0.8 °C 1012.9 hPa SW 7.6 km/h 13.0 km/h 30% 0.0 mm CLR
17:30 18.6 °C 0.7 °C 1012.9 hPa SSW 7.6 km/h 13.0 km/h 30% 0.0 mm CLR
17:35 18.3 °C 0.4 °C 1012.7 hPa SW 7.6 km/h 13.0 km/h 30% 0.0 mm CLR
17:40 18.2 °C 0.3 °C 1012.7 hPa SW 10.3 km/h 14.8 km/h 30% 0.0 mm CLR
17:45 18.2 °C 0.3 °C 1012.7 hPa SW 10.3 km/h 11.1 km/h 30% 0.0 mm CLR
17:50 18.1 °C 0.3 °C 1012.8 hPa SW 9.7 km/h 11.3 km/h 30% 0.0 mm CLR
17:55 18.1 °C 0.2 °C 1012.8 hPa SW 10.0 km/h 13.0 km/h 30% 0.0 mm CLR
18:00 18.1 °C 0.2 °C 1012.8 hPa WSW 9.7 km/h 24.1 km/h 30% 0.0 mm CLR
18:05 17.9 °C 0.5 °C 1012.8 hPa WSW 9.5 km/h 11.1 km/h 31% 0.0 mm CLR
18:10 17.5 °C 0.6 °C 1012.8 hPa West 6.9 km/h 13.0 km/h 32% 0.0 mm CLR
18:15 17.2 °C 0.3 °C 1012.8 hPa SW 6.9 km/h 14.8 km/h 32% 0.0 mm CLR
18:20 17.0 °C 0.6 °C 1012.8 hPa WSW 8.4 km/h 14.8 km/h 33% 0.0 mm CLR
18:25 16.8 °C 0.4 °C 1012.8 hPa SW 8.4 km/h 11.1 km/h 33% 0.0 mm CLR
18:30 16.7 °C 0.3 °C 1012.8 hPa SW 8.7 km/h 13.0 km/h 33% 0.0 mm CLR
18:35 16.6 °C 0.7 °C 1012.8 hPa SSW 8.7 km/h 18.5 km/h 34% 0.0 mm CLR
18:40 16.4 °C 0.9 °C 1012.8 hPa SSW 10.0 km/h 16.7 km/h 35% 0.0 mm CLR
18:45 16.1 °C 1.4 °C 1012.8 hPa SW 10.0 km/h 18.5 km/h 37% 0.0 mm CLR
18:50 15.8 °C 1.8 °C 1012.8 hPa SW 11.3 km/h 20.9 km/h 39% 0.0 mm CLR
18:55 15.4 °C 2.2 °C 1012.8 hPa SW 11.1 km/h 13.0 km/h 41% 0.0 mm CLR
19:00 15.2 °C 2.4 °C 1012.8 hPa SW 11.3 km/h 19.3 km/h 42% 0.0 mm CLR
19:05 15.2 °C 1.3 °C 1012.8 hPa WSW 10.3 km/h 24.1 km/h 39% 0.0 mm CLR
19:10 15.8 °C 1.1 °C 1012.8 hPa WNW 11.9 km/h 16.7 km/h 37% 0.0 mm CLR
19:15 15.8 °C 2.2 °C 1012.8 hPa SSW 11.9 km/h 14.8 km/h 40% 0.0 mm CLR
19:20 15.3 °C 2.8 °C 1012.8 hPa South 10.3 km/h 13.0 km/h 43% 0.0 mm CLR
19:25 14.9 °C 2.4 °C 1012.8 hPa SSW 10.3 km/h 16.7 km/h 43% 0.0 mm CLR
19:30 14.8 °C 2.7 °C 1012.8 hPa SW 9.5 km/h 16.7 km/h 44% 0.0 mm CLR
19:35 14.6 °C 2.8 °C 1012.9 hPa WSW 9.5 km/h 13.0 km/h 45% 0.0 mm CLR
19:40 14.6 °C 3.1 °C 1012.9 hPa WSW 8.0 km/h 12.9 km/h 46% 0.0 mm CLR
19:45 14.4 °C 3.2 °C 1012.9 hPa SSW 8.4 km/h 11.1 km/h 47% 0.0 mm CLR
19:50 14.3 °C 3.4 °C 1013.1 hPa WSW 5.8 km/h 5.6 km/h 48% 0.0 mm CLR
19:55 14.2 °C 3.9 °C 1013.1 hPa SW 5.8 km/h 7.4 km/h 50% 0.0 mm CLR
20:00 14.1 °C 4.1 °C 1013.1 hPa WSW 3.2 km/h 8.0 km/h 51% 0.0 mm CLR
20:05 14.1 °C 4.1 °C 1013.1 hPa SSE 3.9 km/h 5.8 km/h 51% 0.0 mm CLR
20:10 13.8 °C 4.7 °C 1013.1 hPa South 3.2 km/h 8.0 km/h 54% 0.0 mm CLR
20:15 13.4 °C 4.8 °C 1013.1 hPa South 4.7 km/h 11.1 km/h 56% 0.0 mm CLR
20:20 13.0 °C 5.2 °C 1012.9 hPa South 4.8 km/h 12.9 km/h 59% 0.0 mm CLR
20:25 12.6 °C 5.3 °C 1012.9 hPa SSW 5.0 km/h 13.0 km/h 61% 0.0 mm CLR
20:30 12.4 °C 5.1 °C 1012.9 hPa South 8.7 km/h 14.8 km/h 61% 0.0 mm CLR
20:35 12.4 °C 4.8 °C 1013.0 hPa SW 8.7 km/h 9.3 km/h 60% 0.0 mm CLR
20:40 12.6 °C 4.3 °C 1013.0 hPa SW 8.4 km/h 16.7 km/h 57% 0.0 mm CLR
20:45 12.8 °C 3.7 °C 1013.0 hPa South 8.4 km/h 14.8 km/h 54% 0.0 mm CLR
20:50 12.9 °C 3.6 °C 1012.9 hPa SSE 9.5 km/h 11.1 km/h 53% 0.0 mm CLR
20:55 13.2 °C 3.0 °C 1012.9 hPa SSE 9.5 km/h 11.9 km/h 50% 0.0 mm CLR
21:00 13.3 °C 2.5 °C 1012.9 hPa SSE 8.0 km/h 16.1 km/h 48% 0.0 mm CLR
21:05 13.5 °C 1.8 °C 1012.9 hPa SSW 8.4 km/h 14.8 km/h 45% 0.0 mm CLR
21:10 13.9 °C 1.2 °C 1012.9 hPa South 11.9 km/h 14.8 km/h 42% 0.0 mm CLR
21:15 14.2 °C 0.8 °C 1012.9 hPa SSE 11.9 km/h 14.8 km/h 40% 0.0 mm CLR
21:20 14.6 °C 0.4 °C 1013.0 hPa SSE 11.3 km/h 19.3 km/h 38% 0.0 mm CLR
21:25 14.8 °C 0.2 °C 1013.0 hPa SE 11.1 km/h 11.1 km/h 37% 0.0 mm CLR
21:30 14.8 °C -0.2 °C 1013.0 hPa SE 9.7 km/h 16.1 km/h 36% 0.0 mm CLR
21:35 14.9 °C -0.4 °C 1013.2 hPa SE 10.0 km/h 11.1 km/h 35% 0.0 mm CLR
21:40 14.9 °C -0.4 °C 1013.2 hPa WSW 5.8 km/h 7.4 km/h 35% 0.0 mm CLR
21:45 14.9 °C -0.4 °C 1013.2 hPa SW 5.8 km/h 9.3 km/h 35% 0.0 mm CLR
21:50 14.9 °C -0.4 °C 1013.1 hPa SW 4.7 km/h 7.4 km/h 35% 0.0 mm CLR
21:55 14.9 °C -0.4 °C 1013.1 hPa SW 4.7 km/h 9.3 km/h 35% 0.0 mm CLR
22:00 14.8 °C -0.6 °C 1013.1 hPa SW 4.8 km/h 11.3 km/h 35% 0.0 mm CLR
22:05 14.7 °C -0.6 °C 1013.2 hPa SSW 5.8 km/h 9.3 km/h 35% 0.0 mm CLR
22:10 14.5 °C -0.4 °C 1013.2 hPa SSE 6.4 km/h 9.3 km/h 36% 0.0 mm CLR
22:15 14.2 °C -0.7 °C 1013.2 hPa SE 6.4 km/h 13.0 km/h 36% 0.0 mm CLR
22:20 14.1 °C -0.4 °C 1013.4 hPa SSE 7.6 km/h 9.5 km/h 37% 0.0 mm CLR
22:25 14.0 °C -0.5 °C 1013.4 hPa SSE 7.6 km/h 3.7 km/h 37% 0.0 mm CLR
22:30 14.1 °C -0.8 °C 1013.4 hPa WNW 6.4 km/h 11.1 km/h 36% 0.0 mm CLR
22:35 14.3 °C -0.6 °C 1013.2 hPa WNW 6.4 km/h 13.0 km/h 36% 0.0 mm CLR
22:40 14.1 °C -0.8 °C 1013.2 hPa SE 8.7 km/h 7.4 km/h 36% 0.0 mm CLR
22:45 13.9 °C -0.9 °C 1013.2 hPa SE 8.7 km/h 11.1 km/h 36% 0.0 mm CLR
22:50 13.6 °C -0.8 °C 1013.5 hPa SSW 5.8 km/h 9.3 km/h 37% 0.0 mm CLR
22:55 13.4 °C -0.7 °C 1013.5 hPa West 5.8 km/h 13.0 km/h 38% 0.0 mm CLR
23:00 13.3 °C -0.7 °C 1013.5 hPa WSW 8.0 km/h 9.7 km/h 38% 0.0 mm CLR
23:05 13.4 °C -1.0 °C 1013.5 hPa West 7.6 km/h 9.3 km/h 37% 0.0 mm CLR
23:10 13.4 °C -0.9 °C 1013.5 hPa WNW 4.8 km/h 12.9 km/h 37% 0.0 mm CLR
23:15 13.7 °C -1.1 °C 1013.5 hPa West 5.0 km/h 14.8 km/h 36% 0.0 mm CLR
23:20 13.9 °C -1.3 °C 1013.4 hPa NW 9.5 km/h 18.5 km/h 35% 0.0 mm CLR
23:25 14.3 °C -1.4 °C 1013.4 hPa NW 9.5 km/h 26.2 km/h 34% 0.0 mm CLR
23:30 14.4 °C -1.7 °C 1013.4 hPa WNW 16.4 km/h 22.5 km/h 33% 0.0 mm CLR
23:35 14.4 °C -1.7 °C 1013.6 hPa West 16.4 km/h 20.4 km/h 33% 0.0 mm CLR
23:40 14.3 °C -1.8 °C 1013.6 hPa WNW 14.8 km/h 33.3 km/h 33% 0.0 mm CLR
23:45 14.3 °C -1.8 °C 1013.6 hPa NW 14.8 km/h 27.8 km/h 33% 0.0 mm CLR
23:50 14.2 °C -2.3 °C 1013.6 hPa West 19.8 km/h 24.1 km/h 32% 0.0 mm CLR
23:55 14.2 °C -2.3 °C 1013.6 hPa WNW 19.8 km/h 18.5 km/h 32% 0.0 mm CLR
Murcia-Puente Tocinos, España
Compliments of Weather Underground - 2.75 mb

La estación de MeteoMurcia.com, publica sus datos en los siguientes proyectos:

Weather Underground PWS IMURCIAP2 Meteoclimatic www.awekas.at

W3Counter
Web Analytics